createdAt,value
2023-04-25T00:00:18.067Z,57.66
2023-04-25T00:10:56.334Z,56.99
2023-04-25T00:21:19.323Z,57.36
2023-04-25T00:31:40.648Z,58.05
2023-04-25T00:42:03.203Z,58.31
2023-04-25T00:52:24.751Z,58.54
2023-04-25T01:02:46.721Z,58.16
2023-04-25T01:13:08.323Z,58.15
2023-04-25T01:23:30.380Z,58.08
2023-04-25T01:33:52.169Z,58.42
2023-04-25T01:44:13.726Z,58.17
2023-04-25T01:54:35.184Z,57.99
2023-04-25T02:04:57.413Z,58.15
2023-04-25T02:15:21.199Z,57.87
2023-04-25T02:25:50.175Z,58.31
2023-04-25T02:36:11.610Z,58.62
2023-04-25T02:56:59.153Z,58.31
2023-04-25T03:07:26.111Z,58.09
2023-04-25T03:17:47.196Z,58.75
2023-04-25T03:28:08.674Z,57.93
2023-04-25T03:38:30.276Z,57.91
2023-04-25T03:48:52.439Z,58.62
2023-04-25T03:59:18.536Z,58.12
2023-04-25T04:09:40.872Z,58.64
2023-04-25T04:20:08.640Z,58.73
2023-04-25T04:30:56.720Z,58.85
2023-04-25T04:41:18.278Z,59.76
2023-04-25T04:51:59.733Z,59.13
2023-04-25T05:02:31.917Z,59.00
2023-04-25T05:13:06.900Z,59.12
2023-04-25T05:24:00.905Z,58.55
2023-04-25T05:34:48.662Z,58.57
2023-04-25T05:45:18.823Z,58.98
2023-04-25T05:55:47.966Z,58.68
2023-04-25T06:06:21.125Z,59.01
2023-04-25T06:16:42.451Z,58.74
2023-04-25T06:27:03.921Z,59.38
2023-04-25T06:37:25.255Z,59.10
2023-04-25T06:47:47.364Z,58.72
2023-04-25T06:58:08.493Z,58.87
2023-04-25T07:08:48.186Z,58.84
2023-04-25T07:19:09.792Z,58.90
2023-04-25T07:29:31.627Z,59.14
2023-04-25T07:39:54.789Z,58.88
2023-04-25T07:50:16.114Z,58.70
2023-04-25T08:00:38.241Z,59.34
2023-04-25T08:11:26.555Z,59.57
2023-04-25T08:21:49.189Z,58.66
2023-04-25T08:32:16.223Z,58.75
2023-04-25T08:42:50.425Z,58.39
2023-04-25T08:53:19.840Z,57.91
2023-04-25T09:03:42.367Z,57.97
2023-04-25T09:14:16.346Z,57.63
2023-04-25T09:24:53.749Z,57.19
2023-04-25T09:35:27.445Z,57.34
2023-04-25T09:45:53.055Z,57.19
2023-04-25T09:56:14.959Z,57.92
2023-04-25T10:06:37.648Z,58.73
2023-04-25T10:17:00.124Z,57.45
2023-04-25T10:27:21.365Z,57.51
2023-04-25T10:38:02.406Z,59.52
2023-04-25T10:48:27.866Z,60.62
2023-04-25T10:58:51.378Z,62.65
2023-04-25T11:09:14.735Z,63.50
2023-04-25T11:19:36.217Z,64.06
2023-04-25T11:29:57.194Z,63.54
2023-04-25T11:40:21.201Z,61.63
2023-04-25T11:50:42.350Z,61.36
2023-04-25T12:01:04.282Z,59.36
2023-04-25T12:11:27.125Z,59.12
2023-04-25T12:21:57.978Z,58.87
2023-04-25T12:32:20.064Z,57.50
2023-04-25T12:42:41.594Z,58.20
2023-04-25T12:53:02.865Z,57.86
2023-04-25T13:03:24.459Z,57.77
2023-04-25T13:13:45.919Z,56.62
2023-04-25T13:24:07.576Z,56.71
2023-04-25T13:34:30.266Z,57.41
2023-04-25T13:44:53.535Z,56.88
2023-04-25T13:55:14.494Z,55.95
2023-04-25T14:05:40.333Z,55.66
2023-04-25T14:16:01.891Z,56.82
2023-04-25T14:26:23.191Z,56.89
2023-04-25T14:36:44.522Z,57.17
2023-04-25T14:47:06.328Z,57.26
2023-04-25T14:57:27.759Z,57.10
2023-04-25T15:07:49.133Z,57.31
2023-04-25T15:18:10.729Z,56.49
2023-04-25T15:28:32.806Z,56.67
2023-04-25T15:38:53.918Z,56.62
2023-04-25T15:49:14.966Z,55.74
2023-04-25T15:59:36.651Z,55.03
2023-04-25T16:09:57.801Z,55.45
2023-04-25T16:20:19.610Z,55.25
2023-04-25T16:30:41.994Z,55.17
2023-04-25T16:41:03.513Z,55.04
2023-04-25T16:51:24.535Z,54.75
2023-04-25T17:01:45.896Z,55.08
2023-04-25T17:12:07.493Z,54.92
2023-04-25T17:22:28.754Z,54.67
2023-04-25T17:32:50.277Z,55.13
2023-04-25T17:43:11.431Z,55.12
2023-04-25T17:53:33.082Z,55.21
2023-04-25T18:03:55.437Z,54.89
2023-04-25T18:14:17.264Z,55.19
2023-04-25T18:24:38.784Z,54.92
2023-04-25T18:35:00.672Z,55.06
2023-04-25T18:45:21.784Z,54.12
2023-04-25T18:55:44.680Z,54.87
2023-04-25T19:06:07.314Z,54.34
2023-04-25T19:16:28.983Z,54.83
2023-04-25T19:26:50.120Z,54.65
2023-04-25T19:37:11.402Z,53.97
2023-04-25T19:47:33.260Z,54.50
2023-04-25T19:57:54.381Z,54.50
2023-04-25T20:08:16.003Z,53.91
2023-04-25T20:18:37.613Z,54.03
2023-04-25T20:28:59.044Z,54.83
2023-04-25T20:39:22.078Z,54.14
2023-04-25T20:49:43.347Z,55.11
2023-04-25T21:00:14.241Z,55.36
2023-04-25T21:10:37.287Z,55.81
2023-04-25T21:20:59.295Z,55.50
2023-04-25T21:31:20.751Z,55.72
2023-04-25T21:41:43.829Z,56.15
2023-04-25T21:52:05.057Z,56.21
2023-04-25T22:02:27.613Z,56.24
2023-04-25T22:12:52.461Z,56.16
2023-04-25T22:23:14.066Z,56.66
2023-04-25T22:33:36.052Z,56.95
2023-04-25T22:43:57.744Z,55.78
2023-04-25T22:54:19.308Z,56.55
2023-04-25T23:04:40.633Z,55.80
2023-04-25T23:15:03.215Z,55.62
2023-04-25T23:25:24.947Z,55.17
2023-04-25T23:35:46.324Z,54.97
2023-04-25T23:46:07.476Z,55.12
2023-04-25T23:56:28.752Z,55.28
